Time;durP1;ratioP1;P1;durP2;ratioP2;P2;SDS_P1;SDS_P2;PMS_P1;PMS_P2;Temp;Humidity;BMP_temperature;BMP_pressure;BME280_temperature;BME280_humidity;BME280_pressure;Samples;Min_cycle;Max_cycle;Signal;HPM_P1;HPM_P2
2022/11/01 00:02:22;;;;;;;9.80;4.20;;;;;;;11.05;100.00;100291.35;106004;1282;58527;-75
2022/11/01 00:05:12;;;;;;;9.40;4.20;;;;;;;11.06;100.00;100287.75;105832;1291;59094;-75
2022/11/01 00:08:05;;;;;;;8.50;3.60;;;;;;;11.05;100.00;100286.73;105994;1290;71425;-73
2022/11/01 00:11:07;;;;;;;9.20;3.90;;;;;;;11.02;100.00;100279.09;105738;1297;67641;-74
2022/11/01 00:13:55;;;;;;;10.90;4.60;;;;;;;11.05;100.00;100282.95;105759;1287;72724;-74
2022/11/01 00:16:43;;;;;;;8.30;3.60;;;;;;;11.06;100.00;100288.44;105991;1291;59455;-74
2022/11/01 00:19:31;;;;;;;11.50;4.90;;;;;;;11.02;100.00;100291.36;106006;1291;60088;-73
2022/11/01 00:22:21;;;;;;;9.70;4.70;;;;;;;10.96;100.00;100289.00;105902;1292;74181;-74
2022/11/01 00:25:09;;;;;;;9.60;4.50;;;;;;;10.90;100.00;100292.44;106018;1290;67674;-74
2022/11/01 00:27:56;;;;;;;10.70;4.30;;;;;;;10.88;100.00;100288.86;105994;1292;73866;-75
2022/11/01 00:30:44;;;;;;;10.00;4.60;;;;;;;10.85;100.00;100286.23;105984;1282;59264;-75
2022/11/01 00:33:32;;;;;;;9.30;4.10;;;;;;;10.86;100.00;100285.65;106019;1292;60068;-74
2022/11/01 00:36:20;;;;;;;9.70;4.30;;;;;;;10.87;100.00;100279.73;105990;1291;73777;-75
2022/11/01 00:39:13;;;;;;;9.40;4.40;;;;;;;10.87;100.00;100271.91;105991;1291;67659;-74
2022/11/01 00:42:01;;;;;;;9.60;4.40;;;;;;;10.88;100.00;100268.08;105910;1292;73753;-75
2022/11/01 00:44:48;;;;;;;10.10;4.30;;;;;;;10.92;100.00;100260.77;105986;1291;60377;-75
2022/11/01 00:47:36;;;;;;;15.60;5.70;;;;;;;10.97;100.00;100258.77;106012;1283;61174;-74
2022/11/01 00:50:25;;;;;;;11.50;5.10;;;;;;;11.02;100.00;100257.84;105997;1291;74009;-74
2022/11/01 00:53:13;;;;;;;9.90;5.20;;;;;;;11.03;100.00;100251.17;106013;1291;66507;-74
2022/11/01 00:56:03;;;;;;;9.70;4.20;;;;;;;11.03;100.00;100245.17;106006;1291;73589;-74
2022/11/01 00:58:51;;;;;;;10.60;3.90;;;;;;;10.95;100.00;100242.06;106017;1282;57154;-75
2022/11/01 01:01:39;;;;;;;10.20;4.00;;;;;;;10.90;100.00;100240.42;105989;1284;61116;-75
2022/11/01 01:04:27;;;;;;;9.00;4.00;;;;;;;10.90;100.00;100238.34;106040;1289;72910;-75
2022/11/01 01:07:16;;;;;;;11.80;4.70;;;;;;;10.89;100.00;100238.77;106095;1288;67507;-75
2022/11/01 01:10:06;;;;;;;10.00;4.70;;;;;;;10.84;100.00;100245.85;106099;1281;72318;-75
2022/11/01 01:12:54;;;;;;;10.50;4.50;;;;;;;10.81;100.00;100242.52;106099;1290;60360;-76
2022/11/01 01:15:42;;;;;;;11.80;5.20;;;;;;;10.79;100.00;100242.91;106117;1289;61587;-74
2022/11/01 01:18:29;;;;;;;10.00;4.50;;;;;;;10.77;100.00;100241.44;106029;1289;72741;-74
2022/11/01 01:21:18;;;;;;;10.30;4.90;;;;;;;10.75;100.00;100242.13;106101;1289;68579;-74
2022/11/01 01:24:06;;;;;;;11.30;4.90;;;;;;;10.75;100.00;100239.80;106100;1289;73472;-75
2022/11/01 01:26:53;;;;;;;10.80;4.80;;;;;;;10.74;100.00;100237.58;106112;1281;57882;-74
2022/11/01 01:29:43;;;;;;;9.10;3.30;;;;;;;10.72;100.00;100238.45;106121;1289;61384;-75
2022/11/01 01:32:31;;;;;;;9.70;4.40;;;;;;;10.71;100.00;100232.14;106098;1288;73929;-74
2022/11/01 01:35:18;;;;;;;11.00;4.80;;;;;;;10.72;100.00;100231.69;106124;1288;68704;-74
2022/11/01 01:38:07;;;;;;;11.00;4.60;;;;;;;10.74;100.00;100229.76;106104;1289;71553;-75
2022/11/01 01:41:54;;;;;;;9.00;4.10;;;;;;;10.78;100.00;100220.80;106113;1289;59307;-75
2022/11/01 01:45:03;;;;;;;9.70;4.50;;;;;;;10.81;100.00;100218.58;106139;1282;61318;-76
2022/11/01 01:47:53;;;;;;;10.70;4.10;;;;;;;10.82;100.00;100218.71;106132;1281;72775;-75
2022/11/01 01:50:53;;;;;;;10.40;3.90;;;;;;;10.80;100.00;100216.53;106109;1281;68007;-75
2022/11/01 01:53:46;;;;;;;9.30;4.40;;;;;;;10.78;100.00;100214.20;106119;1288;71348;-74
2022/11/01 01:56:36;;;;;;;10.30;4.30;;;;;;;10.76;100.00;100214.90;106108;1282;59851;-75
2022/11/01 01:59:24;;;;;;;9.30;4.10;;;;;;;10.74;100.00;100211.14;106026;1292;60117;-74
2022/11/01 02:02:13;;;;;;;10.10;4.20;;;;;;;10.77;100.00;100201.20;106129;1281;72759;-74
2022/11/01 02:05:16;;;;;;;11.40;4.50;;;;;;;10.79;100.00;100197.97;106024;1290;68602;-74
2022/11/01 02:08:05;;;;;;;9.60;3.60;;;;;;;10.80;100.00;100196.88;106005;1282;70171;-73
2022/11/01 02:10:58;;;;;;;10.40;4.00;;;;;;;10.77;100.00;100197.46;106016;1282;60400;-74
2022/11/01 02:13:46;;;;;;;10.60;4.00;;;;;;;10.74;100.00;100193.71;106038;1288;58772;-75
2022/11/01 02:17:16;;;;;;;10.10;3.60;;;;;;;10.75;100.00;100196.73;106093;1282;73770;-75
2022/11/01 02:20:48;;;;;;;13.30;4.10;;;;;;;10.72;100.00;100187.66;105568;1290;68686;-75
2022/11/01 02:23:56;;;;;;;10.50;4.10;;;;;;;10.71;100.00;100186.84;105567;1297;72398;-75
2022/11/01 02:27:18;;;;;;;11.20;4.50;;;;;;;10.72;100.00;100191.40;105493;1304;59389;-75
2022/11/01 02:30:19;;;;;;;11.50;4.40;;;;;;;10.74;100.00;100191.27;105556;1297;61653;-75
2022/11/01 02:33:30;;;;;;;13.60;4.90;;;;;;;10.75;100.00;100190.11;105495;1297;73867;-74
2022/11/01 02:36:46;;;;;;;13.60;5.70;;;;;;;10.76;100.00;100191.85;105567;1297;67232;-74
2022/11/01 02:39:40;;;;;;;12.50;4.60;;;;;;;10.82;100.00;100195.84;105573;1296;73479;-74
2022/11/01 02:42:38;;;;;;;11.30;4.10;;;;;;;10.84;100.00;100196.38;105567;1297;59709;-75
2022/11/01 02:45:36;;;;;;;12.00;4.10;;;;;;;10.88;100.00;100198.48;105573;1296;61109;-75
2022/11/01 02:48:24;;;;;;;11.70;4.20;;;;;;;10.91;100.00;100199.71;105501;1297;71594;-75
2022/11/01 02:51:12;;;;;;;11.40;4.30;;;;;;;10.93;100.00;100200.67;105576;1288;68636;-75
2022/11/01 02:54:12;;;;;;;10.60;4.60;;;;;;;10.95;100.00;100203.31;105580;1290;72438;-75
2022/11/01 02:57:13;;;;;;;10.40;4.60;;;;;;;10.96;100.00;100197.94;106118;1288;58026;-74
2022/11/01 03:00:25;;;;;;;11.90;4.40;;;;;;;10.96;100.00;100197.60;106036;1284;60067;-74
2022/11/01 03:03:28;;;;;;;11.80;4.40;;;;;;;10.95;100.00;100191.25;106022;1289;72756;-75
2022/11/01 03:06:41;;;;;;;11.80;4.80;;;;;;;10.96;100.00;100188.90;106039;1280;68957;-75
2022/11/01 03:09:30;;;;;;;11.80;4.50;;;;;;;10.94;100.00;100186.38;106114;1288;70187;-74
2022/11/01 03:12:27;;;;;;;13.20;5.50;;;;;;;10.93;100.00;100190.14;106119;1289;58474;-74
2022/11/01 03:15:32;;;;;;;11.20;4.40;;;;;;;10.96;100.00;100197.45;106056;1289;59096;-75
2022/11/01 03:18:34;;;;;;;12.00;4.50;;;;;;;10.97;100.00;100196.82;106041;1282;72722;-74
2022/11/01 03:21:25;;;;;;;11.70;4.90;;;;;;;10.96;100.00;100195.61;105965;1289;67913;-74
2022/11/01 03:25:00;;;;;;;10.90;4.60;;;;;;;10.96;100.00;100196.14;106043;1289;73454;-75
2022/11/01 03:27:47;;;;;;;11.30;4.70;;;;;;;10.93;100.00;100197.27;105615;1295;60578;-76
2022/11/01 03:30:41;;;;;;;14.10;5.80;;;;;;;10.88;100.00;100193.95;105661;1288;58198;-75
2022/11/01 03:33:31;;;;;;;12.50;5.20;;;;;;;10.86;100.00;100199.08;105620;1290;73965;-73
2022/11/01 03:36:25;;;;;;;13.50;5.40;;;;;;;10.87;100.00;100201.67;105542;1298;69082;-75
2022/11/01 03:39:24;;;;;;;14.10;5.90;;;;;;;10.88;100.00;100203.09;105542;1297;72431;-76
2022/11/01 03:42:23;;;;;;;14.00;5.60;;;;;;;10.92;100.00;100203.23;105541;1297;59499;-74
2022/11/01 03:45:12;;;;;;;11.90;4.70;;;;;;;10.92;100.00;100199.27;105643;1297;60108;-77
2022/11/01 03:48:00;;;;;;;13.90;5.30;;;;;;;10.91;100.00;100200.63;105639;1290;72724;-75
2022/11/01 03:50:51;;;;;;;13.70;5.70;;;;;;;10.90;100.00;100198.01;105628;1290;68104;-75
2022/11/01 03:53:39;;;;;;;13.80;5.60;;;;;;;10.89;100.00;100195.96;105548;1297;73460;-73
2022/11/01 03:56:27;;;;;;;15.50;7.20;;;;;;;10.84;100.00;100193.52;105551;1297;59241;-75
2022/11/01 03:59:14;;;;;;;17.90;7.20;;;;;;;10.81;100.00;100191.24;105645;1298;60227;-75
2022/11/01 04:02:02;;;;;;;16.60;7.50;;;;;;;10.83;100.00;100184.19;105641;1297;73309;-76
2022/11/01 04:04:50;;;;;;;16.20;7.00;;;;;;;10.86;100.00;100182.85;105892;1282;68651;-73
2022/11/01 04:07:39;;;;;;;15.80;7.30;;;;;;;10.89;100.00;100179.27;106124;1286;72335;-74
2022/11/01 04:10:30;;;;;;;16.60;6.80;;;;;;;10.93;100.00;100175.33;106046;1288;58283;-75
2022/11/01 04:13:18;;;;;;;15.70;6.50;;;;;;;10.97;100.00;100173.18;106100;1289;58848;-76
2022/11/01 04:22:37;;;;;;;13.60;5.50;;;;;;;11.04;100.00;100167.26;106097;1287;72713;-75
2022/11/01 04:25:25;;;;;;;16.00;7.00;;;;;;;11.06;100.00;100165.56;106112;1288;57255;-76
2022/11/01 04:28:14;;;;;;;14.70;6.70;;;;;;;11.07;100.00;100162.48;106099;1281;59716;-77
2022/11/01 04:31:03;;;;;;;16.30;7.10;;;;;;;11.08;100.00;100155.27;106106;1289;73714;-80
2022/11/01 04:33:51;;;;;;;15.90;7.80;;;;;;;11.09;100.00;100151.63;106106;1289;67480;-78
2022/11/01 04:36:39;;;;;;;17.80;7.00;;;;;;;11.12;100.00;100148.73;106133;1288;72342;-78
2022/11/01 04:39:27;;;;;;;16.30;7.30;;;;;;;11.13;100.00;100144.73;106017;1288;59270;-78
2022/11/01 04:42:14;;;;;;;13.80;6.70;;;;;;;11.14;100.00;100143.58;106130;1289;60046;-77
2022/11/01 04:45:07;;;;;;;15.00;6.20;;;;;;;11.15;100.00;100137.65;106137;1281;72747;-79
2022/11/01 04:48:04;;;;;;;16.40;6.30;;;;;;;11.15;100.00;100133.92;105982;1291;68792;-78
2022/11/01 04:50:52;;;;;;;12.70;6.00;;;;;;;11.16;100.00;100125.18;106108;1289;70966;-77
2022/11/01 04:53:42;;;;;;;14.20;6.70;;;;;;;11.17;100.00;100115.88;106092;1288;57944;-77
2022/11/01 04:56:29;;;;;;;13.10;6.20;;;;;;;11.17;100.00;100107.35;106015;1289;59092;-78
2022/11/01 04:59:17;;;;;;;16.40;7.50;;;;;;;11.18;100.00;100108.81;106126;1281;72706;-78
2022/11/01 05:02:05;;;;;;;14.30;7.40;;;;;;;11.20;100.00;100112.80;106146;1281;67156;-75
2022/11/01 05:04:52;;;;;;;17.80;7.90;;;;;;;11.20;100.00;100117.77;106086;1289;73590;-76
2022/11/01 05:07:40;;;;;;;16.10;7.90;;;;;;;11.19;100.00;100115.15;106094;1289;58963;-76
2022/11/01 05:10:28;;;;;;;15.10;7.30;;;;;;;11.16;100.00;100104.73;106088;1289;58601;-76
2022/11/01 05:13:16;;;;;;;17.10;8.60;;;;;;;11.12;100.00;100098.66;105999;1289;72751;-75
2022/11/01 05:16:05;;;;;;;14.90;8.10;;;;;;;11.09;100.00;100096.27;106101;1281;68652;-77
2022/11/01 05:19:12;;;;;;;16.90;8.20;;;;;;;11.08;100.00;100087.46;105776;1292;72353;-77
2022/11/01 05:21:59;;;;;;;17.00;8.30;;;;;;;11.09;100.00;100086.84;105779;1299;59474;-75
2022/11/01 05:24:47;;;;;;;15.30;7.60;;;;;;;11.08;100.00;100084.10;105806;1290;61327;-76
2022/11/01 05:27:36;;;;;;;15.50;8.00;;;;;;;11.07;100.00;100082.35;105799;1295;73078;-76
2022/11/01 05:30:24;;;;;;;14.50;7.80;;;;;;;11.09;100.00;100079.06;105790;1291;67713;-76
2022/11/01 05:33:11;;;;;;;15.10;7.80;;;;;;;11.10;100.00;100072.38;105800;1279;72649;-77
2022/11/01 05:36:00;;;;;;;14.30;7.40;;;;;;;11.09;100.00;100066.27;105785;1300;58722;-76
2022/11/01 05:38:48;;;;;;;13.30;6.50;;;;;;;11.04;100.00;100066.47;106115;1289;58624;-77
2022/11/01 05:41:36;;;;;;;14.70;5.80;;;;;;;10.97;100.00;100066.47;106107;1281;73877;-76
2022/11/01 05:44:24;;;;;;;11.70;5.20;;;;;;;10.93;100.00;100067.71;106110;1288;68772;-76
2022/11/01 05:47:11;;;;;;;10.80;4.90;;;;;;;10.87;100.00;100064.11;106117;1278;72805;-75
2022/11/01 05:50:04;;;;;;;9.60;3.80;;;;;;;10.81;100.00;100062.41;106104;1281;60296;-75
2022/11/01 05:52:52;;;;;;;10.20;4.50;;;;;;;10.78;100.00;100062.31;106089;1280;61206;-75
2022/11/01 05:55:40;;;;;;;10.00;4.10;;;;;;;10.78;100.00;100059.98;106114;1281;72859;-75
2022/11/01 05:58:28;;;;;;;9.30;4.20;;;;;;;10.79;100.00;100063.80;106081;1289;66679;-76
2022/11/01 06:01:17;;;;;;;9.60;4.00;;;;;;;10.79;100.00;100060.41;106019;1290;72375;-76
2022/11/01 06:04:05;;;;;;;9.00;4.00;;;;;;;10.79;100.00;100064.21;106086;1289;59359;-76
2022/11/01 06:06:53;;;;;;;10.50;4.60;;;;;;;10.78;100.00;100066.20;106111;1288;60001;-75
2022/11/01 06:09:41;;;;;;;9.30;4.00;;;;;;;10.79;100.00;100067.55;106095;1281;73852;-75
2022/11/01 06:12:29;;;;;;;10.30;4.70;;;;;;;10.80;100.00;100066.75;106086;1289;68651;-75
2022/11/01 06:15:17;;;;;;;10.80;4.50;;;;;;;10.79;100.00;100064.38;106107;1288;71271;-76
2022/11/01 06:18:04;;;;;;;9.90;4.30;;;;;;;10.79;100.00;100061.86;106106;1289;60413;-75
2022/11/01 06:20:53;;;;;;;9.30;4.30;;;;;;;10.79;100.00;100060.48;106134;1288;58426;-75
2022/11/01 06:23:45;;;;;;;10.30;4.80;;;;;;;10.76;100.00;100052.88;106117;1289;74037;-76
2022/11/01 06:26:33;;;;;;;10.30;4.60;;;;;;;10.76;100.00;100043.66;106106;1289;67508;-76
2022/11/01 06:29:21;;;;;;;10.90;5.20;;;;;;;10.75;100.00;100050.65;106083;1279;73518;-76
2022/11/01 06:32:09;;;;;;;11.00;5.20;;;;;;;10.74;100.00;100058.86;106108;1289;59463;-76
2022/11/01 06:34:56;;;;;;;11.20;5.20;;;;;;;10.77;100.00;100068.22;106023;1284;60162;-76
2022/11/01 06:37:45;;;;;;;10.80;5.80;;;;;;;10.81;100.00;100068.44;106083;1281;73825;-77
2022/11/01 06:40:34;;;;;;;11.50;5.60;;;;;;;10.84;100.00;100067.69;106111;1289;68738;-76
2022/11/01 06:43:22;;;;;;;12.20;5.30;;;;;;;10.85;100.00;100067.95;106078;1289;73862;-76
2022/11/01 06:46:13;;;;;;;12.10;5.60;;;;;;;10.85;100.00;100070.41;106097;1289;59693;-76
2022/11/01 06:49:01;;;;;;;11.80;5.40;;;;;;;10.84;100.00;100063.94;106085;1281;61107;-76
2022/11/01 06:51:49;;;;;;;12.90;6.30;;;;;;;10.84;100.00;100063.83;106071;1289;74036;-76
2022/11/01 06:54:37;;;;;;;12.70;7.00;;;;;;;10.82;100.00;100062.88;106115;1289;67665;-76
2022/11/01 06:57:25;;;;;;;14.50;7.30;;;;;;;10.82;100.00;100058.27;106098;1280;73979;-76
2022/11/01 07:00:13;;;;;;;14.30;7.30;;;;;;;10.84;100.00;100051.92;105999;1292;59736;-77
2022/11/01 07:03:09;;;;;;;13.60;6.70;;;;;;;10.86;100.00;100047.08;106012;1289;58840;-77
2022/11/01 07:05:59;;;;;;;15.20;7.10;;;;;;;10.90;100.00;100045.91;106114;1289;72865;-75
2022/11/01 07:08:47;;;;;;;12.60;6.20;;;;;;;10.96;100.00;100045.98;105992;1292;67347;-77
2022/11/01 07:11:35;;;;;;;13.40;6.60;;;;;;;11.00;100.00;100045.51;106091;1289;73509;-76
2022/11/01 07:14:23;;;;;;;14.90;7.80;;;;;;;11.02;100.00;100038.23;105980;1292;59296;-76
2022/11/01 07:17:11;;;;;;;13.90;8.00;;;;;;;11.01;100.00;100037.38;106133;1289;61259;-76
2022/11/01 07:19:58;;;;;;;13.30;7.70;;;;;;;11.00;100.00;100038.18;106121;1289;72937;-77
2022/11/01 07:22:46;;;;;;;14.80;8.10;;;;;;;11.03;100.00;100030.89;106007;1284;68081;-79
2022/11/01 07:25:34;;;;;;;18.60;8.70;;;;;;;11.03;100.00;100030.66;106113;1289;72449;-78
2022/11/01 07:28:23;;;;;;;18.00;8.50;;;;;;;11.05;100.00;100027.90;106092;1289;59272;-77
2022/11/01 07:31:10;;;;;;;14.30;7.50;;;;;;;11.09;100.00;100026.09;106005;1289;60062;-76
2022/11/01 07:33:58;;;;;;;15.90;7.10;;;;;;;11.14;100.00;100030.89;106129;1289;71927;-76
2022/11/01 07:36:46;;;;;;;18.40;9.40;;;;;;;11.17;100.00;100029.02;106108;1275;67525;-76
2022/11/01 07:39:34;;;;;;;17.30;8.60;;;;;;;11.21;100.00;100026.40;106094;1281;70920;-78
2022/11/01 07:42:22;;;;;;;19.10;10.00;;;;;;;11.22;100.00;100025.58;106081;1289;60405;-76
2022/11/01 07:45:12;;;;;;;17.10;9.00;;;;;;;11.26;100.00;100021.23;106128;1289;59186;-77
2022/11/01 07:48:09;;;;;;;15.60;8.70;;;;;;;11.30;100.00;100017.91;106086;1287;73948;-77
2022/11/01 07:50:57;;;;;;;18.30;8.40;;;;;;;11.25;100.00;100012.95;105983;1296;68624;-76
2022/11/01 07:53:45;;;;;;;18.70;8.70;;;;;;;11.21;100.00;100011.27;106069;1288;73458;-76
2022/11/01 07:56:33;;;;;;;17.00;8.00;;;;;;;11.16;100.00;100010.45;106112;1289;59605;-78
2022/11/01 07:59:21;;;;;;;17.70;8.90;;;;;;;11.18;100.00;100012.99;106130;1289;60081;-76
2022/11/01 08:02:09;;;;;;;16.70;9.10;;;;;;;11.14;100.00;100010.13;106101;1289;72084;-77
2022/11/01 08:04:57;;;;;;;17.40;8.70;;;;;;;11.15;100.00;100013.00;106104;1288;68709;-77
2022/11/01 08:07:45;;;;;;;19.20;8.50;;;;;;;11.15;100.00;100017.80;106114;1289;73460;-76
2022/11/01 08:10:34;;;;;;;18.70;9.60;;;;;;;11.17;100.00;100019.11;105980;1292;60585;-76
2022/11/01 08:13:23;;;;;;;17.70;9.00;;;;;;;11.17;100.00;100015.16;106092;1289;60614;-76
2022/11/01 08:16:16;;;;;;;18.50;9.10;;;;;;;11.18;100.00;100010.27;105986;1291;73817;-77
2022/11/01 08:19:04;;;;;;;20.30;9.20;;;;;;;11.22;100.00;100007.10;106116;1289;66160;-76
2022/11/01 08:21:55;;;;;;;17.20;8.60;;;;;;;11.24;100.00;100001.30;106092;1286;72283;-77
2022/11/01 08:24:43;;;;;;;20.90;9.90;;;;;;;11.22;100.00;100011.36;105375;1285;1002384;-77
2022/11/01 08:27:31;;;;;;;20.90;9.40;;;;;;;11.24;100.00;100007.33;106113;1289;60256;-76
2022/11/01 08:30:21;;;;;;;21.50;10.70;;;;;;;11.29;100.00;99999.33;106105;1281;71767;-77
2022/11/01 08:33:10;;;;;;;21.90;9.00;;;;;;;11.36;100.00;99996.58;106139;1295;67533;-77
2022/11/01 08:35:57;;;;;;;21.60;9.50;;;;;;;11.42;100.00;99996.48;105915;1285;72880;-77
2022/11/01 08:38:45;;;;;;;21.70;10.80;;;;;;;11.44;100.00;99998.81;106106;1291;60323;-77
2022/11/01 08:41:33;;;;;;;19.90;10.00;;;;;;;11.49;100.00;99995.67;106107;1289;60112;-76
2022/11/01 08:44:23;;;;;;;19.90;10.30;;;;;;;11.48;100.00;100000.91;106088;1281;71347;-76
2022/11/01 08:47:11;;;;;;;23.00;10.90;;;;;;;11.45;100.00;100001.77;106117;1287;67654;-76
2022/11/01 08:49:59;;;;;;;22.50;11.60;;;;;;;11.40;100.00;100007.45;106019;1290;72545;-76
2022/11/01 08:52:47;;;;;;;23.10;12.10;;;;;;;11.39;100.00;100009.98;106034;1289;59333;-76
2022/11/01 08:55:35;;;;;;;23.70;12.30;;;;;;;11.34;100.00;100015.20;106084;1289;61601;-77
2022/11/01 08:58:24;;;;;;;22.20;12.50;;;;;;;11.29;100.00;100029.15;106112;1287;72013;-76
2022/11/01 09:01:12;;;;;;;25.40;14.00;;;;;;;11.25;100.00;100059.08;106089;1287;66861;-77
2022/11/01 09:04:01;;;;;;;24.30;10.90;;;;;;;11.21;100.00;100065.80;106106;1295;71320;-77
2022/11/01 09:06:48;;;;;;;23.90;11.10;;;;;;;11.22;100.00;100067.52;106103;1288;59700;-77
2022/11/01 09:09:36;;;;;;;24.50;11.90;;;;;;;11.20;100.00;100081.39;106117;1289;60398;-78
2022/11/01 09:12:24;;;;;;;26.80;12.30;;;;;;;11.20;100.00;100056.79;106106;1288;74029;-78
2022/11/01 09:15:12;;;;;;;22.10;11.70;;;;;;;11.24;100.00;100068.55;106103;1287;66175;-77
2022/11/01 09:18:05;;;;;;;24.90;12.30;;;;;;;11.25;100.00;100054.83;106123;1278;72388;-78
2022/11/01 09:20:55;;;;;;;21.90;11.70;;;;;;;11.28;100.00;100068.32;106086;1289;60350;-77
2022/11/01 09:23:42;;;;;;;24.20;11.90;;;;;;;11.30;100.00;100056.91;106097;1283;60157;-77
2022/11/01 09:26:30;;;;;;;23.30;10.90;;;;;;;11.36;100.00;100055.02;106118;1295;71398;-77
2022/11/01 09:29:19;;;;;;;26.90;12.40;;;;;;;11.40;100.00;100048.48;106121;1287;68777;-78
2022/11/01 09:32:10;;;;;;;26.40;12.50;;;;;;;11.45;100.00;100052.55;106085;1283;72553;-77
2022/11/01 09:34:57;;;;;;;26.00;12.20;;;;;;;11.46;100.00;100047.80;106105;1289;58212;-76
2022/11/01 09:37:45;;;;;;;27.70;13.20;;;;;;;11.47;100.00;100036.00;106122;1281;58714;-77
2022/11/01 09:40:42;;;;;;;26.50;13.00;;;;;;;11.52;100.00;100029.25;106109;1289;71633;-77
2022/11/01 09:43:36;;;;;;;28.40;14.10;;;;;;;11.54;100.00;100028.34;106097;1295;67666;-76
2022/11/01 09:46:37;;;;;;;29.40;14.10;;;;;;;11.55;100.00;100027.90;106002;1291;73564;-80
2022/11/01 09:49:31;;;;;;;30.50;14.20;;;;;;;11.50;100.00;100028.90;106097;1292;59287;-77
2022/11/01 09:52:22;;;;;;;31.70;15.00;;;;;;;11.45;100.00;100021.30;106062;1289;61556;-76
2022/11/01 09:55:16;;;;;;;28.50;13.60;;;;;;;11.41;100.00;100018.40;106014;1292;73074;-76
2022/11/01 09:58:16;;;;;;;29.20;14.20;;;;;;;11.35;100.00;100012.52;105890;1288;67942;-77
2022/11/01 10:01:43;;;;;;;30.70;15.20;;;;;;;11.28;100.00;100006.65;105959;1289;72663;-77
2022/11/01 10:05:05;;;;;;;32.30;15.30;;;;;;;11.23;100.00;100007.77;106095;1289;57874;-76
2022/11/01 10:08:10;;;;;;;33.40;15.40;;;;;;;11.22;100.00;100012.33;106092;1295;61253;-77
2022/11/01 10:11:44;;;;;;;34.30;16.90;;;;;;;11.19;100.00;100005.80;106094;1289;73105;-76
2022/11/01 10:14:46;;;;;;;35.30;16.60;;;;;;;11.18;100.00;100007.14;106054;1289;68635;-76
2022/11/01 10:17:52;;;;;;;27.10;13.30;;;;;;;11.18;100.00;100004.43;106089;1289;72841;-77
2022/11/01 10:21:01;;;;;;;;;;;;;;;;;;;;;
2022/11/01 10:23:55;;;;;;;34.20;15.10;;;;;;;11.21;100.00;100001.70;105934;1287;60054;-77
2022/11/01 10:26:44;;;;;;;44.40;18.20;;;;;;;11.25;100.00;99996.39;105943;1297;72730;-78
2022/11/01 10:29:41;;;;;;;48.10;18.30;;;;;;;11.33;100.00;99997.55;106112;1294;69445;-76
2022/11/01 10:32:39;;;;;;;42.90;16.80;;;;;;;11.42;100.00;99996.63;106118;1288;71552;-76
2022/11/01 10:35:43;;;;;;;43.50;18.30;;;;;;;11.48;100.00;99995.07;106090;1295;59513;-77
2022/11/01 10:38:39;;;;;;;44.10;18.00;;;;;;;11.53;100.00;99981.34;106027;1289;58766;-76
2022/11/01 10:41:52;;;;;;;47.00;18.10;;;;;;;11.57;100.00;99972.65;105999;1289;73863;-76
2022/11/01 10:44:53;;;;;;;43.30;18.00;;;;;;;11.63;100.00;99968.63;105999;1292;67871;-77
2022/11/01 10:47:45;;;;;;;43.10;18.20;;;;;;;11.69;100.00;99964.70;106018;1288;71059;-77
2022/11/01 10:50:34;;;;;;;47.00;19.10;;;;;;;11.74;100.00;99965.58;105879;1289;57903;-75
2022/11/01 10:53:26;;;;;;;41.50;18.00;;;;;;;11.74;100.00;99964.51;105782;1294;62199;-76
2022/11/01 10:56:20;;;;;;;42.30;17.70;;;;;;;11.77;100.00;99977.92;106103;1287;74256;-79
2022/11/01 10:59:18;;;;;;;46.10;18.20;;;;;;;11.77;100.00;99970.45;106005;1281;67526;-77
2022/11/01 11:02:28;;;;;;;40.70;17.30;;;;;;;11.77;100.00;99964.61;105974;1287;72576;-76
2022/11/01 11:05:16;;;;;;;38.50;16.90;;;;;;;11.78;100.00;99966.50;105971;1296;57824;-76
2022/11/01 11:08:29;;;;;;;34.20;15.80;;;;;;;11.81;100.00;99964.42;106110;1288;60054;-77
2022/11/01 11:11:31;;;;;;;35.80;16.20;;;;;;;11.81;100.00;99971.71;106001;1289;73466;-76
2022/11/01 11:14:20;;;;;;;33.70;16.40;;;;;;;11.80;100.00;99971.09;106121;1295;69097;-75
2022/11/01 11:17:44;;;;;;;38.10;16.50;;;;;;;11.81;100.00;99976.93;106009;1289;71187;-77
2022/11/01 11:20:36;;;;;;;34.00;16.00;;;;;;;11.81;100.00;99978.84;106047;1289;59274;-77
2022/11/01 11:23:33;;;;;;;39.40;17.00;;;;;;;11.84;100.00;99989.77;106098;1288;59993;-76
2022/11/01 11:26:26;;;;;;;39.10;18.30;;;;;;;11.83;100.00;99983.30;105958;1291;73900;-77
2022/11/01 11:29:48;;;;;;;30.20;14.40;;;;;;;11.83;100.00;99984.36;105966;1291;66626;-80
2022/11/01 11:32:45;;;;;;;34.70;17.00;;;;;;;11.81;100.00;99993.23;105940;1298;71709;-77
2022/11/01 11:35:36;;;;;;;36.90;16.10;;;;;;;11.76;100.00;99999.72;105997;1292;60430;-77
2022/11/01 11:38:47;;;;;;;30.80;15.10;;;;;;;11.70;100.00;99994.48;105994;1292;60080;-77
2022/11/01 11:41:43;;;;;;;36.40;17.20;;;;;;;11.67;100.00;99983.54;105950;1289;73107;-75
2022/11/01 11:44:52;;;;;;;36.10;17.30;;;;;;;11.66;100.00;99977.80;105764;1288;67938;-77
2022/11/01 11:47:48;;;;;;;35.90;17.70;;;;;;;11.67;100.00;99973.60;105992;1292;71707;-78
2022/11/01 11:50:41;;;;;;;36.40;17.40;;;;;;;11.67;100.00;99985.52;106021;1289;58135;-78
2022/11/01 11:54:34;;;;;;;31.20;16.10;;;;;;;11.64;100.00;99980.59;105997;1296;60780;-77
2022/11/01 11:57:28;;;;;;;40.90;19.00;;;;;;;11.59;100.00;99973.91;105846;1295;72054;-78
2022/11/01 12:00:29;;;;;;;38.10;19.40;;;;;;;11.59;100.00;99984.59;106004;1289;67913;-78
2022/11/01 12:03:18;;;;;;;39.30;18.80;;;;;;;11.53;100.00;99989.99;105839;1289;71087;-77
2022/11/01 12:06:07;;;;;;;42.00;21.20;;;;;;;11.46;100.00;99992.23;106107;1287;57886;-77
2022/11/01 12:08:59;;;;;;;44.60;21.50;;;;;;;11.40;100.00;99993.26;105998;1294;60088;-78
2022/11/01 12:11:48;;;;;;;41.90;20.70;;;;;;;11.36;100.00;99985.60;106090;1290;73615;-78
2022/11/01 12:14:41;;;;;;;36.40;19.30;;;;;;;11.36;100.00;99974.77;106121;1295;66421;-77
2022/11/01 12:17:45;;;;;;;36.10;17.90;;;;;;;11.35;100.00;99984.06;105979;1292;72589;-77
2022/11/01 12:20:38;;;;;;;33.90;17.80;;;;;;;11.31;100.00;99979.06;105946;1290;59752;-77
2022/11/01 12:23:36;;;;;;;41.20;19.40;;;;;;;11.31;100.00;99981.73;106101;1288;60106;-78
2022/11/01 12:26:35;;;;;;;39.70;19.20;;;;;;;11.34;100.00;99979.92;105934;1285;72991;-77
2022/11/01 12:29:46;;;;;;;37.80;18.40;;;;;;;11.37;100.00;99972.88;105862;1284;67664;-76
2022/11/01 12:32:51;;;;;;;39.30;17.40;;;;;;;11.41;100.00;99971.35;105798;1289;70994;-77
2022/11/01 12:35:46;;;;;;;38.60;18.70;;;;;;;11.44;100.00;99965.02;105946;1295;60605;-77
2022/11/01 12:38:59;;;;;;;35.90;17.50;;;;;;;11.49;100.00;99960.16;105995;1290;60097;-77
2022/11/01 12:42:02;;;;;;;38.10;18.40;;;;;;;11.54;100.00;99956.53;105952;1292;70849;-76
2022/11/01 12:45:15;;;;;;;35.80;17.00;;;;;;;11.60;100.00;99956.96;106005;1293;67531;-76
2022/11/01 12:48:42;;;;;;;35.70;17.20;;;;;;;11.70;100.00;99965.73;105912;1289;72807;-77
2022/11/01 12:51:39;;;;;;;35.30;17.40;;;;;;;11.79;100.00;99958.17;105963;1290;59512;-77
2022/11/01 12:54:46;;;;;;;38.50;16.60;;;;;;;11.88;100.00;99962.44;105931;1288;61104;-75
2022/11/01 12:57:35;;;;;;;35.00;15.60;;;;;;;11.93;100.00;99959.88;105870;1301;73745;-76
2022/11/01 13:01:01;;;;;;;39.20;17.10;;;;;;;11.99;100.00;99958.90;105815;1289;66491;-77
2022/11/01 13:04:25;;;;;;;34.30;15.10;;;;;;;12.11;100.00;99950.35;105980;1296;74045;-77
2022/11/01 13:07:51;;;;;;;35.60;15.20;;;;;;;12.20;100.00;99938.05;106009;1295;60635;-76
2022/11/01 13:10:45;;;;;;;41.50;17.40;;;;;;;12.26;100.00;99935.56;106103;1285;58874;-77